Overview Statistics Trail Chart Weather Telemetry Raw packets
 

This is the latest recevied weather packets stored in our database for station/object E23BMY-13. If no packets are shown the sender has not sent any weather packets the latest 10 day(s).

<< 23 24 25 26 27 28 29 >>
Time Temp. Humidity Pressure Rain* Wind** Luminosity Snow
1788443104 28.33° C 87% 1008.1 hPa 0 mm - - -
1788442804 28.33° C 86% 1008.1 hPa 0 mm - - -
1788442503 28.33° C 86% 1008.1 hPa 0 mm - - -
1788442204 28.33° C 86% 1008 hPa 0 mm - - -
1788441903 27.78° C 87% 1008 hPa 0 mm - - -
1788441604 27.78° C 87% 1008.1 hPa 0 mm - - -
1788441304 27.78° C 87% 1008.1 hPa 0 mm - - -
1788441003 27.78° C 86% 1008.1 hPa 0 mm - - -
1788440704 27.78° C 86% 1008 hPa 0 mm - - -
1788440404 27.78° C 87% 1008 hPa 0 mm - - -
1788440103 27.78° C 88% 1008.2 hPa 0 mm - - -
1788439804 27.78° C 88% 1008.2 hPa 0 mm - - -
1788439504 27.78° C 88% 1008 hPa 0 mm - - -
1788439203 27.22° C 87% 1007.9 hPa 0 mm - - -
1788438904 27.22° C 88% 1007.9 hPa 0 mm - - -
1788438603 27.22° C 88% 1007.9 hPa 0 mm - - -
1788438304 27.22° C 87% 1007.8 hPa 0 mm - - -
1788438003 27.22° C 87% 1007.8 hPa 0 mm - - -
1788437704 27.78° C 84% 1008 hPa 0 mm - - -
1788437104 29.44° C 75% 1007.6 hPa 0 mm - - -
1788436803 30.56° C 74% 1007.5 hPa 0 mm - - -
1788436504 31.67° C 67% 1007.4 hPa 0 mm - - -
1788436203 31.67° C 66% 1006.7 hPa 0 mm - - -
1788435904 31.67° C 66% 1006.3 hPa 0 mm - - -
1788435603 32.22° C 65% 1006.2 hPa 0 mm - - -

* Rain latest hour (hover to see other rain measurements)
** Current wind speed in m/s (hover to see current wind gust speed)